Time;durP1;ratioP1;P1;durP2;ratioP2;P2;SDS_P1;SDS_P2;PMS_P1;PMS_P2;Temp;Humidity;BMP_temperature;BMP_pressure;BME280_temperature;BME280_humidity;BME280_pressure;Samples;Min_cycle;Max_cycle;Signal;HPM_P1;HPM_P2
2020/12/29 00:00:59;;;;;;;5.32;4.82;;;;;;;;;;4794930;30;20219;-90
2020/12/29 00:03:26;;;;;;;4.78;4.30;;;;;;;;;;4794834;30;20211;-90
2020/12/29 00:05:55;;;;;;;4.55;4.15;;;;;;;;;;4795461;30;20482;-88
2020/12/29 00:08:22;;;;;;;4.63;4.18;;;;;;;;;;4794201;30;20619;-90
2020/12/29 00:10:49;;;;;;;5.40;4.68;;;;;;;;;;4794462;30;20218;-89
2020/12/29 00:13:17;;;;;;;4.82;4.43;;;;;;;;;;4794721;30;20211;-89
2020/12/29 00:15:44;;;;;;;4.55;4.15;;;;;;;;;;4794001;29;20381;-88
2020/12/29 00:18:11;;;;;;;4.40;4.05;;;;;;;;;;4793239;30;20210;-87
2020/12/29 00:20:38;;;;;;;4.35;4.05;;;;;;;;;;4793932;30;20207;-88
2020/12/29 00:23:05;;;;;;;4.75;4.35;;;;;;;;;;4793977;30;20201;-87
2020/12/29 00:25:32;;;;;;;4.88;3.92;;;;;;;;;;4794098;30;20547;-88
2020/12/29 00:27:59;;;;;;;5.13;4.63;;;;;;;;;;4793687;30;20299;-89
2020/12/29 00:30:27;;;;;;;4.43;3.97;;;;;;;;;;4793946;30;20207;-88
2020/12/29 00:32:55;;;;;;;4.40;4.00;;;;;;;;;;4794493;30;20203;-89
2020/12/29 00:35:21;;;;;;;4.63;4.22;;;;;;;;;;4794403;30;20203;-87
2020/12/29 00:37:48;;;;;;;5.22;4.20;;;;;;;;;;4794029;30;20192;-89
2020/12/29 00:40:15;;;;;;;4.68;4.20;;;;;;;;;;4794146;30;20273;-88
2020/12/29 00:42:42;;;;;;;4.13;3.72;;;;;;;;;;4793842;30;20215;-87
2020/12/29 00:45:09;;;;;;;4.32;3.70;;;;;;;;;;4793807;29;20501;-88
2020/12/29 00:47:37;;;;;;;4.07;3.70;;;;;;;;;;4794071;30;20226;-88
2020/12/29 00:50:04;;;;;;;7.03;3.78;;;;;;;;;;4793795;30;20215;-86
2020/12/29 00:52:31;;;;;;;5.90;5.07;;;;;;;;;;4794034;30;20282;-86
2020/12/29 00:54:58;;;;;;;6.07;5.15;;;;;;;;;;4793755;30;20337;-87
2020/12/29 00:57:25;;;;;;;5.90;5.40;;;;;;;;;;4793417;30;20467;-87
2020/12/29 00:59:52;;;;;;;4.43;4.03;;;;;;;;;;4793706;30;20215;-88
2020/12/29 01:02:19;;;;;;;8.55;5.18;;;;;;;;;;4793667;30;20233;-88
2020/12/29 01:04:47;;;;;;;4.25;3.53;;;;;;;;;;4793598;30;20268;-87
2020/12/29 01:07:14;;;;;;;4.57;4.00;;;;;;;;;;4793338;30;20290;-89
2020/12/29 01:09:41;;;;;;;4.63;4.13;;;;;;;;;;4793992;30;20212;-89
2020/12/29 01:12:08;;;;;;;4.50;4.07;;;;;;;;;;4793711;30;20616;-84
2020/12/29 01:14:35;;;;;;;3.92;3.63;;;;;;;;;;4792731;30;20582;-85
2020/12/29 01:17:02;;;;;;;3.53;3.22;;;;;;;;;;4792330;30;20222;-84
2020/12/29 01:19:28;;;;;;;4.90;4.07;;;;;;;;;;4793075;30;20201;-83
2020/12/29 01:21:56;;;;;;;3.72;3.42;;;;;;;;;;4792809;30;20238;-84
2020/12/29 01:24:23;;;;;;;3.75;3.10;;;;;;;;;;4793066;30;20195;-84
2020/12/29 01:26:50;;;;;;;3.60;3.30;;;;;;;;;;4792265;30;20260;-83
2020/12/29 01:29:17;;;;;;;3.58;3.10;;;;;;;;;;4792952;30;20236;-84
2020/12/29 01:31:44;;;;;;;4.10;3.70;;;;;;;;;;4792835;30;20203;-83
2020/12/29 01:34:11;;;;;;;4.05;3.70;;;;;;;;;;4792528;30;20233;-83
2020/12/29 01:36:38;;;;;;;4.28;3.92;;;;;;;;;;4792299;30;20291;-83
2020/12/29 01:39:06;;;;;;;3.47;3.20;;;;;;;;;;4792516;30;20619;-84
2020/12/29 01:41:35;;;;;;;3.55;3.25;;;;;;;;;;4792224;30;20226;-83
2020/12/29 01:44:16;;;;;;;3.50;3.20;;;;;;;;;;4792011;30;20617;-83
2020/12/29 01:46:44;;;;;;;4.45;3.97;;;;;;;;;;4791982;30;20195;-83
2020/12/29 01:49:12;;;;;;;4.90;4.13;;;;;;;;;;4790904;30;20215;-83
2020/12/29 01:51:39;;;;;;;3.80;3.50;;;;;;;;;;4792165;30;20191;-83
2020/12/29 01:54:07;;;;;;;4.50;3.88;;;;;;;;;;4792768;30;20191;-83
2020/12/29 01:56:37;;;;;;;3.28;3.00;;;;;;;;;;4791684;30;20187;-82
2020/12/29 01:59:09;;;;;;;3.53;3.22;;;;;;;;;;4792557;30;20294;-84
2020/12/29 02:01:38;;;;;;;4.20;3.58;;;;;;;;;;4792565;30;20282;-83
2020/12/29 02:04:06;;;;;;;3.60;3.30;;;;;;;;;;4792632;30;20449;-84
2020/12/29 02:06:34;;;;;;;4.63;4.13;;;;;;;;;;4792211;30;20202;-83
2020/12/29 02:09:03;;;;;;;4.43;4.03;;;;;;;;;;4792494;30;20248;-84
2020/12/29 02:11:31;;;;;;;5.57;4.00;;;;;;;;;;4792508;30;20219;-83
2020/12/29 02:13:58;;;;;;;4.95;4.45;;;;;;;;;;4792323;30;20296;-83
2020/12/29 02:16:25;;;;;;;5.18;4.18;;;;;;;;;;4792409;30;20211;-83
2020/12/29 02:18:52;;;;;;;4.70;4.22;;;;;;;;;;4791952;30;20196;-83
2020/12/29 02:21:19;;;;;;;4.82;4.43;;;;;;;;;;4792475;30;20190;-84
2020/12/29 02:23:47;;;;;;;4.53;4.13;;;;;;;;;;4792007;30;20267;-83
2020/12/29 02:26:14;;;;;;;5.53;4.88;;;;;;;;;;4792618;30;20215;-84
2020/12/29 02:28:40;;;;;;;4.20;3.88;;;;;;;;;;4791695;30;20184;-83
2020/12/29 02:31:07;;;;;;;4.80;4.40;;;;;;;;;;4792073;30;20615;-83
2020/12/29 02:33:36;;;;;;;6.35;5.75;;;;;;;;;;4792317;30;20200;-84
2020/12/29 02:36:03;;;;;;;5.25;4.75;;;;;;;;;;4792267;30;20218;-84
2020/12/29 02:38:30;;;;;;;8.05;5.57;;;;;;;;;;4792008;30;20199;-83
2020/12/29 02:40:58;;;;;;;5.93;5.32;;;;;;;;;;4792313;30;20286;-84
2020/12/29 02:43:26;;;;;;;5.22;4.72;;;;;;;;;;4792410;30;20221;-83
2020/12/29 02:45:53;;;;;;;6.43;5.63;;;;;;;;;;4791832;30;20227;-84
2020/12/29 02:48:20;;;;;;;6.80;5.18;;;;;;;;;;4791611;30;20275;-84
2020/12/29 02:50:47;;;;;;;5.85;5.32;;;;;;;;;;4791892;30;20195;-84
2020/12/29 02:53:13;;;;;;;6.28;5.68;;;;;;;;;;4792095;30;20191;-83
2020/12/29 02:55:42;;;;;;;6.30;5.70;;;;;;;;;;4792357;30;20309;-84
2020/12/29 02:58:09;;;;;;;6.95;5.03;;;;;;;;;;4791706;30;20188;-82
2020/12/29 03:00:36;;;;;;;5.93;5.40;;;;;;;;;;4791869;30;20191;-82
2020/12/29 03:03:04;;;;;;;5.97;5.38;;;;;;;;;;4792064;30;20628;-83
2020/12/29 03:05:31;;;;;;;5.65;5.15;;;;;;;;;;4791625;30;20490;-83
2020/12/29 03:07:58;;;;;;;6.72;5.10;;;;;;;;;;4792935;29;20501;-83
2020/12/29 03:10:25;;;;;;;6.47;5.80;;;;;;;;;;4795048;30;20214;-84
2020/12/29 03:12:52;;;;;;;5.10;4.60;;;;;;;;;;4795153;30;20208;-82
2020/12/29 03:15:20;;;;;;;4.63;4.22;;;;;;;;;;4794589;30;20241;-84
2020/12/29 03:17:47;;;;;;;5.95;5.38;;;;;;;;;;4794370;30;20191;-84
2020/12/29 03:20:14;;;;;;;5.40;4.90;;;;;;;;;;4795031;30;20227;-85
2020/12/29 03:22:41;;;;;;;5.65;5.05;;;;;;;;;;4794737;30;20214;-86
2020/12/29 03:25:08;;;;;;;8.93;5.50;;;;;;;;;;4794558;30;20271;-85
2020/12/29 03:27:35;;;;;;;5.38;4.88;;;;;;;;;;4794297;30;20244;-85
2020/12/29 03:30:01;;;;;;;6.40;4.70;;;;;;;;;;4794951;30;20256;-86
2020/12/29 03:32:29;;;;;;;4.25;3.95;;;;;;;;;;4794877;30;20199;-84
2020/12/29 03:34:56;;;;;;;4.95;4.50;;;;;;;;;;4794686;30;20268;-86
2020/12/29 03:37:23;;;;;;;5.13;4.63;;;;;;;;;;4794088;30;20580;-85
2020/12/29 03:39:52;;;;;;;5.38;4.88;;;;;;;;;;4794990;30;20215;-85
2020/12/29 03:42:19;;;;;;;5.53;4.32;;;;;;;;;;4793891;30;20231;-85
2020/12/29 03:44:46;;;;;;;5.80;4.25;;;;;;;;;;4794466;30;20231;-85
2020/12/29 03:47:13;;;;;;;4.13;3.70;;;;;;;;;;4794141;30;20206;-85
2020/12/29 03:49:40;;;;;;;3.65;3.35;;;;;;;;;;4794657;30;20219;-85
2020/12/29 03:52:07;;;;;;;4.10;3.70;;;;;;;;;;4794557;30;20238;-84
2020/12/29 03:54:34;;;;;;;4.18;3.65;;;;;;;;;;4794289;30;20188;-85
2020/12/29 03:57:01;;;;;;;4.07;3.67;;;;;;;;;;4793809;30;20225;-85
2020/12/29 03:59:28;;;;;;;4.60;4.00;;;;;;;;;;4794424;30;20203;-85
2020/12/29 04:01:55;;;;;;;4.85;4.35;;;;;;;;;;4794182;30;20219;-85
2020/12/29 04:04:22;;;;;;;4.53;4.07;;;;;;;;;;4793968;30;20216;-85
2020/12/29 04:06:49;;;;;;;5.68;5.03;;;;;;;;;;4793887;30;20491;-86
2020/12/29 04:09:16;;;;;;;4.70;4.30;;;;;;;;;;4794333;30;20195;-85
2020/12/29 04:11:43;;;;;;;6.47;5.85;;;;;;;;;;4793861;30;20218;-86
2020/12/29 04:14:10;;;;;;;6.00;4.32;;;;;;;;;;4764372;30;20253;-86
2020/12/29 04:16:37;;;;;;;5.70;5.20;;;;;;;;;;4793754;29;20206;-82
2020/12/29 04:19:04;;;;;;;5.03;4.53;;;;;;;;;;4793591;29;20219;-84
2020/12/29 04:21:31;;;;;;;6.53;5.85;;;;;;;;;;4793641;29;20207;-86
2020/12/29 04:23:59;;;;;;;5.57;4.97;;;;;;;;;;4793713;29;20235;-86
2020/12/29 04:26:26;;;;;;;5.25;4.75;;;;;;;;;;4793919;29;20187;-86
2020/12/29 04:28:53;;;;;;;5.70;5.15;;;;;;;;;;4794392;29;20477;-85
2020/12/29 04:31:22;;;;;;;6.20;4.93;;;;;;;;;;4793725;29;20192;-86
2020/12/29 04:33:50;;;;;;;5.43;4.50;;;;;;;;;;4792688;30;20207;-85
2020/12/29 04:36:17;;;;;;;4.93;4.53;;;;;;;;;;4793788;29;20194;-85
2020/12/29 04:38:44;;;;;;;4.90;4.28;;;;;;;;;;4793637;29;20643;-86
2020/12/29 04:41:12;;;;;;;4.57;4.18;;;;;;;;;;4793864;29;20210;-86
2020/12/29 04:43:38;;;;;;;5.18;4.68;;;;;;;;;;4793836;29;20229;-86
2020/12/29 04:46:06;;;;;;;4.50;4.10;;;;;;;;;;4793367;29;20223;-86
2020/12/29 04:48:34;;;;;;;4.60;4.20;;;;;;;;;;4793507;29;20196;-84
2020/12/29 04:51:04;;;;;;;4.60;3.60;;;;;;;;;;4793858;29;20195;-84
2020/12/29 04:53:33;;;;;;;4.88;4.40;;;;;;;;;;4793836;29;20192;-86
2020/12/29 04:56:05;;;;;;;4.35;3.95;;;;;;;;;;4762977;30;20287;-86
2020/12/29 04:58:34;;;;;;;5.28;4.35;;;;;;;;;;4793592;29;20204;-86
2020/12/29 05:01:06;;;;;;;4.72;4.22;;;;;;;;;;4793980;29;20738;-86
2020/12/29 05:03:43;;;;;;;5.20;3.75;;;;;;;;;;4793697;29;20243;-87
2020/12/29 05:06:10;;;;;;;5.28;4.55;;;;;;;;;;4793267;29;20505;-87
2020/12/29 05:08:37;;;;;;;5.10;4.13;;;;;;;;;;4793193;29;20476;-86
2020/12/29 05:11:04;;;;;;;3.80;3.40;;;;;;;;;;4793754;29;20218;-86
2020/12/29 05:13:31;;;;;;;4.53;4.13;;;;;;;;;;4793438;29;20203;-86
2020/12/29 05:15:59;;;;;;;4.63;4.20;;;;;;;;;;4793398;29;20256;-86
2020/12/29 05:18:27;;;;;;;4.80;4.40;;;;;;;;;;4793236;29;20207;-86
2020/12/29 05:20:54;;;;;;;5.15;4.65;;;;;;;;;;4793358;29;20555;-85
2020/12/29 05:23:22;;;;;;;5.50;5.10;;;;;;;;;;4793179;29;20215;-86
2020/12/29 05:25:49;;;;;;;4.20;3.80;;;;;;;;;;4793274;29;20195;-86
2020/12/29 05:28:16;;;;;;;4.18;3.78;;;;;;;;;;4793109;29;20215;-86
2020/12/29 05:30:43;;;;;;;4.53;4.13;;;;;;;;;;4792623;29;20213;-86
2020/12/29 05:33:12;;;;;;;6.18;4.28;;;;;;;;;;4792845;29;20529;-85
2020/12/29 05:35:40;;;;;;;4.05;3.65;;;;;;;;;;4762358;30;20226;-86
2020/12/29 05:38:08;;;;;;;4.30;4.00;;;;;;;;;;4793077;29;20203;-86
2020/12/29 05:40:35;;;;;;;4.18;3.75;;;;;;;;;;4793097;29;20264;-87
2020/12/29 05:43:04;;;;;;;4.70;4.13;;;;;;;;;;4792720;29;20215;-86
2020/12/29 05:45:34;;;;;;;5.22;4.00;;;;;;;;;;4792947;29;20230;-87
2020/12/29 05:48:02;;;;;;;4.05;3.75;;;;;;;;;;4793041;29;20554;-87
2020/12/29 05:50:32;;;;;;;4.95;4.55;;;;;;;;;;4792956;29;20203;-85
2020/12/29 05:53:02;;;;;;;3.88;3.58;;;;;;;;;;4792873;29;20563;-87
2020/12/29 05:55:29;;;;;;;4.38;3.97;;;;;;;;;;4792913;29;20267;-87
2020/12/29 05:58:03;;;;;;;4.35;3.95;;;;;;;;;;4792929;29;20199;-87
2020/12/29 06:00:30;;;;;;;4.18;3.78;;;;;;;;;;4793251;29;20267;-86
2020/12/29 06:02:59;;;;;;;4.18;3.88;;;;;;;;;;4792542;29;20187;-87
2020/12/29 06:05:27;;;;;;;4.88;4.35;;;;;;;;;;4793071;29;20215;-86
2020/12/29 06:07:57;;;;;;;8.40;5.78;;;;;;;;;;4792744;29;20321;-87
2020/12/29 06:10:25;;;;;;;6.32;4.90;;;;;;;;;;4792531;29;20205;-87
2020/12/29 06:12:54;;;;;;;5.60;4.25;;;;;;;;;;4793066;29;20211;-87
2020/12/29 06:15:27;;;;;;;5.15;4.65;;;;;;;;;;4790380;29;20246;-87
2020/12/29 06:17:59;;;;;;;8.05;5.00;;;;;;;;;;4792854;30;20204;-86
2020/12/29 06:20:38;;;;;;;5.63;5.03;;;;;;;;;;4792675;30;20214;-87
2020/12/29 06:23:07;;;;;;;4.88;4.40;;;;;;;;;;4792535;30;20221;-87
2020/12/29 06:25:37;;;;;;;5.40;4.90;;;;;;;;;;4792545;30;20210;-87
2020/12/29 06:28:06;;;;;;;5.90;5.30;;;;;;;;;;4792599;30;20478;-87
2020/12/29 06:30:34;;;;;;;5.50;4.57;;;;;;;;;;4792440;30;20204;-87
2020/12/29 06:33:02;;;;;;;4.85;4.28;;;;;;;;;;4792647;30;20555;-88
2020/12/29 06:35:29;;;;;;;4.25;3.95;;;;;;;;;;4792587;30;20207;-88
2020/12/29 06:38:06;;;;;;;4.65;4.25;;;;;;;;;;4792588;30;20286;-88
2020/12/29 06:40:34;;;;;;;4.95;4.45;;;;;;;;;;4792379;30;20202;-88
2020/12/29 06:43:01;;;;;;;5.55;5.05;;;;;;;;;;4795691;29;20210;-88
2020/12/29 06:45:34;;;;;;;4.90;4.40;;;;;;;;;;4795516;29;20227;-87
2020/12/29 06:48:01;;;;;;;5.50;4.88;;;;;;;;;;4795896;30;20232;-87
2020/12/29 06:50:30;;;;;;;5.80;5.10;;;;;;;;;;4795948;30;20207;-87
2020/12/29 06:52:59;;;;;;;6.22;5.25;;;;;;;;;;4796048;30;20203;-87
2020/12/29 06:55:31;;;;;;;8.10;7.18;;;;;;;;;;4796071;30;20211;-87
2020/12/29 06:57:58;;;;;;;6.22;5.72;;;;;;;;;;4795518;30;20462;-87
2020/12/29 07:00:26;;;;;;;6.70;6.05;;;;;;;;;;4795856;30;20209;-87
2020/12/29 07:02:54;;;;;;;7.60;5.95;;;;;;;;;;4795613;30;20218;-87
2020/12/29 07:05:23;;;;;;;6.78;6.05;;;;;;;;;;4795629;30;20215;-87
2020/12/29 07:07:55;;;;;;;5.15;4.65;;;;;;;;;;4795267;30;20192;-87
2020/12/29 07:10:26;;;;;;;6.15;5.65;;;;;;;;;;4795431;30;20196;-87
2020/12/29 07:12:55;;;;;;;5.90;5.35;;;;;;;;;;4795507;30;20202;-86
2020/12/29 07:15:23;;;;;;;6.05;5.50;;;;;;;;;;4794934;29;20653;-86
2020/12/29 07:17:59;;;;;;;7.43;6.28;;;;;;;;;;4795678;30;20207;-86
2020/12/29 07:20:30;;;;;;;6.80;6.10;;;;;;;;;;4795417;30;20336;-87
2020/12/29 07:23:00;;;;;;;6.38;5.88;;;;;;;;;;4795979;30;20184;-87
2020/12/29 07:25:27;;;;;;;5.53;4.90;;;;;;;;;;4796571;30;20281;-87
2020/12/29 07:28:02;;;;;;;6.57;5.97;;;;;;;;;;4795967;30;20211;-88
2020/12/29 07:30:30;;;;;;;6.28;5.68;;;;;;;;;;4795304;30;20191;-87
2020/12/29 07:33:02;;;;;;;6.38;5.72;;;;;;;;;;4795227;30;20272;-88
2020/12/29 07:35:32;;;;;;;5.90;5.40;;;;;;;;;;4795280;30;20203;-86
2020/12/29 07:38:07;;;;;;;6.18;5.57;;;;;;;;;;4795437;30;20207;-87
2020/12/29 07:40:34;;;;;;;6.20;5.60;;;;;;;;;;4795054;30;20206;-85
2020/12/29 07:43:02;;;;;;;6.05;5.45;;;;;;;;;;4794988;30;20200;-87
2020/12/29 07:45:29;;;;;;;7.05;6.30;;;;;;;;;;4794746;29;20513;-87
2020/12/29 07:47:59;;;;;;;6.35;5.72;;;;;;;;;;4794849;30;20578;-87
2020/12/29 07:50:26;;;;;;;6.45;5.85;;;;;;;;;;4794872;30;20203;-87
2020/12/29 07:53:02;;;;;;;7.85;6.65;;;;;;;;;;4794422;29;20340;-87
2020/12/29 07:55:29;;;;;;;6.88;6.28;;;;;;;;;;4795171;30;20205;-87
2020/12/29 07:57:56;;;;;;;8.70;7.90;;;;;;;;;;4795188;30;20211;-86
2020/12/29 08:00:24;;;;;;;7.35;6.65;;;;;;;;;;4794698;30;20258;-87
2020/12/29 08:02:53;;;;;;;7.30;6.60;;;;;;;;;;4795213;30;20214;-88
2020/12/29 08:05:24;;;;;;;6.60;5.82;;;;;;;;;;4794733;30;20227;-87
2020/12/29 08:07:56;;;;;;;7.75;6.80;;;;;;;;;;4794518;30;20207;-88
2020/12/29 08:10:25;;;;;;;6.68;5.97;;;;;;;;;;4794761;30;20211;-87
2020/12/29 08:12:56;;;;;;;7.25;6.28;;;;;;;;;;4794437;30;20194;-87
2020/12/29 08:15:31;;;;;;;6.93;6.30;;;;;;;;;;4794168;29;20257;-88
2020/12/29 08:18:07;;;;;;;7.70;6.97;;;;;;;;;;4794366;30;20210;-89
2020/12/29 08:20:41;;;;;;;7.25;6.55;;;;;;;;;;4794744;30;20203;-88
2020/12/29 08:23:08;;;;;;;5.93;5.40;;;;;;;;;;4794396;30;20226;-88
2020/12/29 08:25:35;;;;;;;7.40;5.90;;;;;;;;;;4794425;30;20503;-89
2020/12/29 08:28:04;;;;;;;8.10;7.30;;;;;;;;;;4794315;30;20291;-89
2020/12/29 08:30:33;;;;;;;7.30;6.65;;;;;;;;;;4794353;30;20191;-89
2020/12/29 08:33:04;;;;;;;7.20;6.50;;;;;;;;;;4794488;30;20218;-87
2020/12/29 08:35:34;;;;;;;6.90;6.30;;;;;;;;;;4794114;30;20493;-88
2020/12/29 08:38:12;;;;;;;6.57;5.97;;;;;;;;;;4794059;30;20211;-88
2020/12/29 08:40:45;;;;;;;6.97;6.28;;;;;;;;;;4793956;30;20278;-88
2020/12/29 08:43:11;;;;;;;8.77;6.78;;;;;;;;;;4793905;30;20337;-88
2020/12/29 08:45:40;;;;;;;7.05;6.18;;;;;;;;;;4793080;29;20234;-88
2020/12/29 08:48:06;;;;;;;6.45;5.85;;;;;;;;;;4793876;30;20210;-88
2020/12/29 08:50:34;;;;;;;7.15;6.45;;;;;;;;;;4793672;30;20390;-88
2020/12/29 08:53:07;;;;;;;7.82;6.20;;;;;;;;;;4793591;30;20196;-88
2020/12/29 08:55:35;;;;;;;7.18;6.47;;;;;;;;;;4793893;30;20211;-88
2020/12/29 08:58:03;;;;;;;8.57;7.68;;;;;;;;;;4793615;30;20279;-87
2020/12/29 09:00:32;;;;;;;6.72;6.13;;;;;;;;;;4793656;30;20232;-88
2020/12/29 09:03:00;;;;;;;8.30;7.43;;;;;;;;;;4793821;30;20293;-87
2020/12/29 09:05:28;;;;;;;8.82;6.50;;;;;;;;;;4792596;29;20207;-88
2020/12/29 09:07:56;;;;;;;6.60;6.00;;;;;;;;;;4793914;30;20274;-88
2020/12/29 09:10:23;;;;;;;6.18;5.57;;;;;;;;;;4793810;30;20317;-89
2020/12/29 09:12:50;;;;;;;8.60;6.18;;;;;;;;;;4793655;30;20202;-88
2020/12/29 09:15:25;;;;;;;6.40;5.82;;;;;;;;;;4793287;29;20246;-88
2020/12/29 09:32:39;;;;;;;7.35;5.53;;;;;;;;;;4793332;30;20236;-88
2020/12/29 09:37:48;;;;;;;6.90;6.20;;;;;;;;;;4792512;30;20209;-89
2020/12/29 09:40:15;;;;;;;7.15;6.45;;;;;;;;;;4793107;30;20191;-89
2020/12/29 09:42:42;;;;;;;6.22;5.65;;;;;;;;;;4793343;30;20211;-90
2020/12/29 09:45:09;;;;;;;4.60;4.03;;;;;;;;;;4793016;29;20576;-88
2020/12/29 09:47:36;;;;;;;6.60;5.57;;;;;;;;;;4793243;30;20188;-89
2020/12/29 09:50:04;;;;;;;5.72;5.15;;;;;;;;;;4793039;30;20191;-89
2020/12/29 09:52:31;;;;;;;5.07;4.68;;;;;;;;;;4793138;30;20466;-88
2020/12/29 09:54:58;;;;;;;4.88;4.47;;;;;;;;;;4793841;30;20199;-88
2020/12/29 09:57:25;;;;;;;5.13;4.72;;;;;;;;;;4793460;30;20610;-87
2020/12/29 09:59:52;;;;;;;3.13;2.92;;;;;;;;;;4793711;30;20211;-88
2020/12/29 10:02:19;;;;;;;2.50;2.30;;;;;;;;;;4790879;29;20221;-86
2020/12/29 10:04:46;;;;;;;2.60;2.40;;;;;;;;;;4792257;30;20225;-87
2020/12/29 10:07:14;;;;;;;2.25;2.00;;;;;;;;;;4789813;29;20199;-87
2020/12/29 10:09:41;;;;;;;2.58;2.38;;;;;;;;;;4793596;29;20206;-88
2020/12/29 10:12:08;;;;;;;2.35;2.15;;;;;;;;;;4792644;30;20218;-87
2020/12/29 10:14:35;;;;;;;2.97;2.10;;;;;;;;;;4791907;29;20254;-88
2020/12/29 10:17:02;;;;;;;2.25;1.98;;;;;;;;;;4794190;29;20209;-88
2020/12/29 10:19:29;;;;;;;2.53;2.33;;;;;;;;;;4796063;30;20207;-89
2020/12/29 10:21:57;;;;;;;2.80;2.60;;;;;;;;;;4797031;30;20205;-88
2020/12/29 10:24:25;;;;;;;2.40;2.20;;;;;;;;;;4797291;30;20205;-88
2020/12/29 10:26:53;;;;;;;2.97;2.78;;;;;;;;;;4796308;30;20531;-88
2020/12/29 10:29:21;;;;;;;3.50;3.20;;;;;;;;;;4796166;30;20222;-88
2020/12/29 10:31:48;;;;;;;2.70;2.50;;;;;;;;;;4796757;30;20207;-88
2020/12/29 10:34:17;;;;;;;2.65;2.45;;;;;;;;;;4796176;30;20464;-87
2020/12/29 10:36:45;;;;;;;2.08;1.98;;;;;;;;;;4796154;30;20191;-87
2020/12/29 10:39:12;;;;;;;2.55;2.35;;;;;;;;;;4796162;30;20196;-87
2020/12/29 10:41:41;;;;;;;2.67;2.47;;;;;;;;;;4796161;30;20192;-88
2020/12/29 10:44:09;;;;;;;2.33;2.13;;;;;;;;;;4796509;29;20226;-87
2020/12/29 10:46:37;;;;;;;2.60;2.40;;;;;;;;;;4795992;30;20644;-88
2020/12/29 10:49:04;;;;;;;2.58;2.38;;;;;;;;;;4796018;30;20192;-88
2020/12/29 10:51:32;;;;;;;2.75;2.55;;;;;;;;;;4796713;30;20215;-88
2020/12/29 10:53:59;;;;;;;3.33;3.03;;;;;;;;;;4795667;30;20542;-87
2020/12/29 10:56:26;;;;;;;3.28;2.97;;;;;;;;;;4796869;30;20455;-87
2020/12/29 10:58:54;;;;;;;2.97;2.60;;;;;;;;;;4796623;30;20451;-88
2020/12/29 11:01:23;;;;;;;2.80;2.60;;;;;;;;;;4795865;30;20188;-87
2020/12/29 11:03:50;;;;;;;2.85;2.72;;;;;;;;;;4795753;30;20556;-86
2020/12/29 11:06:18;;;;;;;3.53;3.22;;;;;;;;;;4796165;30;20223;-87
2020/12/29 11:08:45;;;;;;;2.90;2.70;;;;;;;;;;4796432;30;20215;-88
2020/12/29 11:11:13;;;;;;;3.60;3.30;;;;;;;;;;4795440;30;20211;-87
2020/12/29 11:13:40;;;;;;;2.67;2.50;;;;;;;;;;4795746;30;20515;-88
2020/12/29 11:16:12;;;;;;;2.95;2.75;;;;;;;;;;4795299;29;20242;-87
2020/12/29 11:18:39;;;;;;;3.00;2.80;;;;;;;;;;4795438;30;20262;-87
2020/12/29 11:21:06;;;;;;;3.28;3.08;;;;;;;;;;4795853;30;20203;-87
2020/12/29 11:23:33;;;;;;;3.35;3.05;;;;;;;;;;4796370;30;20207;-87
2020/12/29 11:26:00;;;;;;;3.03;2.83;;;;;;;;;;4795849;30;20239;-87
2020/12/29 11:28:27;;;;;;;4.10;3.38;;;;;;;;;;4794141;29;20183;-87
2020/12/29 11:30:54;;;;;;;3.10;2.80;;;;;;;;;;4794890;30;20204;-87
2020/12/29 11:33:22;;;;;;;3.05;2.85;;;;;;;;;;4795262;30;20195;-87
2020/12/29 11:35:49;;;;;;;3.25;2.95;;;;;;;;;;4795204;30;20195;-87
2020/12/29 11:38:16;;;;;;;3.00;2.70;;;;;;;;;;4795607;30;20218;-87
2020/12/29 11:40:43;;;;;;;7.82;3.05;;;;;;;;;;4795475;30;20199;-87
2020/12/29 11:43:12;;;;;;;3.15;2.85;;;;;;;;;;4795792;30;20214;-87
2020/12/29 11:45:39;;;;;;;3.15;2.95;;;;;;;;;;4794749;29;20292;-87
2020/12/29 11:48:07;;;;;;;2.65;2.45;;;;;;;;;;4795107;30;20215;-87
2020/12/29 11:50:34;;;;;;;3.08;2.78;;;;;;;;;;4795344;30;20476;-86
2020/12/29 11:53:01;;;;;;;2.90;2.70;;;;;;;;;;4795845;30;20257;-88
2020/12/29 11:55:28;;;;;;;3.25;3.03;;;;;;;;;;4795105;30;20217;-88
2020/12/29 11:57:55;;;;;;;2.97;2.60;;;;;;;;;;4795669;30;20286;-88
2020/12/29 12:00:22;;;;;;;2.60;2.40;;;;;;;;;;4795276;30;20215;-88
2020/12/29 12:02:49;;;;;;;2.42;2.22;;;;;;;;;;4795185;30;20482;-87
2020/12/29 12:05:16;;;;;;;3.05;2.30;;;;;;;;;;4795181;30;20195;-88
2020/12/29 12:07:44;;;;;;;2.42;1.92;;;;;;;;;;4794717;30;20262;-87
2020/12/29 12:10:12;;;;;;;2.20;2.00;;;;;;;;;;4794602;30;20198;-87
2020/12/29 12:12:40;;;;;;;2.70;1.92;;;;;;;;;;4794987;30;20548;-88
2020/12/29 12:15:08;;;;;;;1.85;1.75;;;;;;;;;;4793916;29;20243;-88
2020/12/29 12:17:37;;;;;;;3.08;2.17;;;;;;;;;;4794184;30;20195;-86
2020/12/29 12:20:04;;;;;;;3.40;1.98;;;;;;;;;;4795420;30;20211;-87
2020/12/29 12:22:31;;;;;;;3.15;2.47;;;;;;;;;;4794655;30;20187;-87
2020/12/29 12:24:59;;;;;;;2.08;1.90;;;;;;;;;;4794239;30;20596;-87
2020/12/29 12:27:26;;;;;;;2.13;1.92;;;;;;;;;;4794406;30;20234;-85
2020/12/29 12:29:53;;;;;;;2.75;2.55;;;;;;;;;;4795016;30;20218;-85
2020/12/29 12:32:19;;;;;;;2.03;1.83;;;;;;;;;;4794200;30;20539;-85
2020/12/29 12:34:46;;;;;;;2.15;1.90;;;;;;;;;;4794496;30;20211;-87
2020/12/29 12:37:13;;;;;;;2.55;1.83;;;;;;;;;;4794383;30;20198;-86
2020/12/29 12:39:40;;;;;;;3.35;2.05;;;;;;;;;;4793947;29;20198;-87
2020/12/29 12:42:09;;;;;;;2.90;2.10;;;;;;;;;;4794664;30;20203;-87
2020/12/29 12:44:37;;;;;;;3.40;1.90;;;;;;;;;;4793279;29;20239;-85
2020/12/29 12:47:05;;;;;;;4.75;1.90;;;;;;;;;;4793585;30;20231;-86
2020/12/29 12:49:32;;;;;;;2.20;1.73;;;;;;;;;;4793911;30;20221;-87
2020/12/29 12:51:59;;;;;;;1.70;1.60;;;;;;;;;;4794077;30;20215;-88
2020/12/29 12:54:26;;;;;;;3.53;2.15;;;;;;;;;;4794204;30;20218;-88
2020/12/29 12:56:54;;;;;;;2.40;2.20;;;;;;;;;;4793571;30;20207;-87
2020/12/29 12:59:23;;;;;;;4.00;2.00;;;;;;;;;;4793835;30;20207;-88
2020/12/29 13:01:52;;;;;;;2.90;1.70;;;;;;;;;;4794081;30;20215;-88
2020/12/29 13:04:20;;;;;;;1.70;1.60;;;;;;;;;;4793730;30;20214;-87
2020/12/29 13:06:47;;;;;;;2.28;1.88;;;;;;;;;;4793677;30;20306;-87
2020/12/29 13:09:14;;;;;;;1.92;1.83;;;;;;;;;;4794063;30;20199;-87
2020/12/29 13:11:41;;;;;;;3.17;1.80;;;;;;;;;;4794104;30;20205;-88
2020/12/29 13:14:08;;;;;;;1.90;1.80;;;;;;;;;;4793196;29;20276;-87
2020/12/29 13:16:36;;;;;;;2.42;2.22;;;;;;;;;;4793565;30;20196;-88
2020/12/29 13:19:03;;;;;;;3.42;2.10;;;;;;;;;;4794196;30;20207;-84
2020/12/29 13:21:30;;;;;;;4.72;2.78;;;;;;;;;;4793179;30;20221;-84
2020/12/29 13:23:57;;;;;;;2.92;1.88;;;;;;;;;;4793254;30;20274;-84
2020/12/29 13:26:24;;;;;;;3.95;2.05;;;;;;;;;;4793385;30;20305;-84
2020/12/29 13:28:51;;;;;;;2.40;2.20;;;;;;;;;;4793276;30;20207;-85
2020/12/29 13:31:21;;;;;;;2.10;1.90;;;;;;;;;;4793344;30;20285;-84
2020/12/29 13:33:49;;;;;;;2.80;1.95;;;;;;;;;;4792957;30;20591;-85
2020/12/29 13:36:17;;;;;;;2.50;2.30;;;;;;;;;;4793245;30;20191;-85
2020/12/29 13:38:44;;;;;;;4.03;2.42;;;;;;;;;;4793870;30;20199;-86
2020/12/29 13:41:11;;;;;;;2.38;2.17;;;;;;;;;;4793474;30;20198;-87
2020/12/29 13:43:38;;;;;;;2.35;2.15;;;;;;;;;;4792626;30;20184;-88
2020/12/29 13:46:08;;;;;;;5.30;3.05;;;;;;;;;;4792798;29;20235;-85
2020/12/29 13:48:35;;;;;;;2.95;2.30;;;;;;;;;;4792694;30;20199;-88
2020/12/29 13:51:05;;;;;;;2.13;2.00;;;;;;;;;;4792795;29;20218;-84
2020/12/29 13:53:32;;;;;;;4.22;2.55;;;;;;;;;;4792896;30;20207;-85
2020/12/29 13:55:58;;;;;;;2.28;2.03;;;;;;;;;;4792888;30;20211;-84
2020/12/29 13:58:25;;;;;;;2.22;2.03;;;;;;;;;;4792615;30;20229;-84
2020/12/29 14:00:52;;;;;;;1.92;1.80;;;;;;;;;;4792563;30;20202;-86
2020/12/29 14:03:19;;;;;;;2.13;1.70;;;;;;;;;;4792525;30;20198;-85
2020/12/29 14:05:46;;;;;;;3.85;3.00;;;;;;;;;;4792797;30;20202;-86
2020/12/29 14:08:14;;;;;;;2.90;2.10;;;;;;;;;;4792835;30;20225;-90
2020/12/29 14:10:41;;;;;;;4.32;2.08;;;;;;;;;;4793225;30;20204;-88
2020/12/29 14:13:08;;;;;;;3.22;2.10;;;;;;;;;;4792683;29;20584;-94
2020/12/29 14:15:35;;;;;;;2.15;1.95;;;;;;;;;;4787852;29;20505;-94
2020/12/29 14:18:02;;;;;;;3.00;2.38;;;;;;;;;;4792339;30;20223;-91
2020/12/29 14:20:29;;;;;;;3.53;1.80;;;;;;;;;;4793320;30;20294;-92
2020/12/29 14:22:56;;;;;;;2.35;2.15;;;;;;;;;;4792585;30;20575;-91
2020/12/29 14:25:24;;;;;;;4.22;2.08;;;;;;;;;;4792509;30;20226;-93
2020/12/29 14:27:51;;;;;;;2.78;2.42;;;;;;;;;;4792539;30;20235;-93
2020/12/29 14:30:18;;;;;;;2.28;1.98;;;;;;;;;;4792999;30;20219;-93
2020/12/29 14:32:46;;;;;;;2.88;1.98;;;;;;;;;;4793481;30;20215;-90
2020/12/29 14:35:14;;;;;;;2.40;2.17;;;;;;;;;;4793909;30;20199;-94
2020/12/29 14:37:41;;;;;;;6.25;2.53;;;;;;;;;;4792750;30;21013;-92
2020/12/29 14:40:08;;;;;;;2.90;2.33;;;;;;;;;;4792849;30;20277;-89
2020/12/29 14:42:36;;;;;;;4.78;2.92;;;;;;;;;;4792357;30;20526;-87
2020/12/29 14:45:05;;;;;;;4.47;2.70;;;;;;;;;;4792714;29;20231;-88
2020/12/29 14:47:32;;;;;;;2.75;2.15;;;;;;;;;;4791814;30;20211;-86
2020/12/29 14:49:59;;;;;;;2.55;2.35;;;;;;;;;;4792219;30;20218;-86
2020/12/29 14:52:26;;;;;;;2.85;2.65;;;;;;;;;;4792297;30;20195;-86
2020/12/29 14:54:53;;;;;;;3.65;2.88;;;;;;;;;;4792246;30;20192;-86
2020/12/29 14:57:20;;;;;;;2.90;2.47;;;;;;;;;;4791718;30;20199;-86
2020/12/29 14:59:47;;;;;;;3.10;2.75;;;;;;;;;;4791925;30;20232;-86
2020/12/29 15:02:14;;;;;;;2.05;1.90;;;;;;;;;;4792200;29;20212;-85
2020/12/29 15:04:41;;;;;;;2.80;2.42;;;;;;;;;;4796671;29;20203;-85